Time;durP1;ratioP1;P1;durP2;ratioP2;P2;SDS_P1;SDS_P2;PMS_P1;PMS_P2;Temp;Humidity;BMP_temperature;BMP_pressure;BME280_temperature;BME280_humidity;BME280_pressure;Samples;Min_cycle;Max_cycle;Signal;HPM_P1;HPM_P2
2022/05/15 00:00:38;;;;;;;9.20;6.43;;;18.00;58.50;;;;;;5055165;28;20425;-72
2022/05/15 00:03:05;;;;;;;9.53;5.73;;;18.00;58.50;;;;;;5055423;28;20441;-72
2022/05/15 00:05:33;;;;;;;8.60;5.83;;;18.00;58.60;;;;;;5055247;28;20456;-72
2022/05/15 00:07:59;;;;;;;8.97;6.50;;;18.00;58.80;;;;;;5055504;28;20480;-72
2022/05/15 00:10:26;;;;;;;9.53;7.00;;;17.90;58.90;;;;;;5055158;28;20450;-72
2022/05/15 00:12:54;;;;;;;8.03;7.23;;;17.80;58.90;;;;;;5055054;28;20465;-72
2022/05/15 00:15:21;;;;;;;8.90;5.80;;;17.70;59.00;;;;;;5054938;28;20453;-72
2022/05/15 00:17:48;;;;;;;7.07;5.97;;;17.70;58.80;;;;;;5054863;28;20445;-72
2022/05/15 00:20:15;;;;;;;7.47;6.53;;;17.60;58.70;;;;;;5054634;28;20454;-72
2022/05/15 00:22:43;;;;;;;11.40;6.30;;;17.50;58.60;;;;;;5054750;28;20486;-72
2022/05/15 00:25:10;;;;;;;7.20;5.97;;;17.40;58.50;;;;;;5055222;28;20872;-72
2022/05/15 00:27:37;;;;;;;11.83;6.73;;;17.40;59.10;;;;;;5054675;28;20453;-72
2022/05/15 00:30:06;;;;;;;8.00;7.20;;;17.40;59.20;;;;;;5054710;28;20446;-72
2022/05/15 00:32:33;;;;;;;7.13;5.57;;;17.30;59.10;;;;;;5054808;28;20462;-72
2022/05/15 00:34:59;;;;;;;10.90;5.63;;;17.20;59.30;;;;;;5054172;28;20457;-72
2022/05/15 00:37:26;;;;;;;11.93;6.37;;;17.20;59.20;;;;;;5053531;28;20548;-72
2022/05/15 00:39:53;;;;;;;9.93;6.43;;;17.10;59.60;;;;;;5053870;28;20446;-72
2022/05/15 00:42:19;;;;;;;7.70;6.73;;;17.10;60.00;;;;;;5054259;28;20489;-72
2022/05/15 00:44:47;;;;;;;10.93;7.33;;;17.10;60.30;;;;;;5053899;28;20991;-72
2022/05/15 00:47:15;;;;;;;6.83;6.20;;;17.10;60.50;;;;;;5055481;28;20450;-72
2022/05/15 00:49:42;;;;;;;11.80;7.00;;;17.10;60.60;;;;;;5054517;28;20453;-72
2022/05/15 00:52:12;;;;;;;7.57;6.87;;;17.10;60.90;;;;;;5054147;28;20473;-72
2022/05/15 00:54:43;;;;;;;8.37;7.00;;;17.10;61.30;;;;;;5054224;28;20452;-72
2022/05/15 00:57:14;;;;;;;10.10;6.50;;;17.10;61.70;;;;;;5053998;28;20968;-72
2022/05/15 00:59:46;;;;;;;10.77;7.70;;;17.00;61.60;;;;;;5053786;28;20968;-72
2022/05/15 01:02:17;;;;;;;8.43;7.07;;;16.90;61.60;;;;;;5053758;28;20856;-72
2022/05/15 01:04:46;;;;;;;7.23;6.53;;;16.90;62.10;;;;;;5054011;28;20441;-72
2022/05/15 01:07:13;;;;;;;9.03;7.20;;;16.90;62.00;;;;;;5053822;28;20956;-72
2022/05/15 01:09:40;;;;;;;8.87;6.70;;;16.80;62.00;;;;;;5054094;28;20453;-71
2022/05/15 01:12:09;;;;;;;12.50;7.47;;;16.70;62.30;;;;;;5053523;28;20984;-72
2022/05/15 01:14:36;;;;;;;13.87;7.50;;;16.70;62.50;;;;;;5054057;28;20457;-72
2022/05/15 01:17:03;;;;;;;8.93;7.10;;;16.60;63.00;;;;;;5054122;28;20458;-72
2022/05/15 01:19:33;;;;;;;14.53;7.50;;;16.60;63.10;;;;;;5053784;28;20464;-71
2022/05/15 01:22:04;;;;;;;11.07;8.23;;;16.60;63.10;;;;;;5053822;28;20489;-72
2022/05/15 01:24:31;;;;;;;10.70;6.90;;;16.50;63.00;;;;;;5054116;28;20548;-72
2022/05/15 01:27:00;;;;;;;11.33;7.13;;;16.50;63.10;;;;;;5053859;28;20456;-72
2022/05/15 01:29:29;;;;;;;10.50;7.27;;;16.40;63.20;;;;;;5054124;28;20445;-72
2022/05/15 01:31:57;;;;;;;10.33;7.30;;;16.30;63.50;;;;;;5054002;28;20515;-72
2022/05/15 01:34:24;;;;;;;10.73;6.70;;;16.30;63.50;;;;;;5053907;28;20457;-72
2022/05/15 01:36:52;;;;;;;12.33;7.63;;;16.30;64.00;;;;;;5053859;28;20454;-72
2022/05/15 01:39:20;;;;;;;11.07;7.73;;;16.20;64.10;;;;;;5053736;28;20518;-72
2022/05/15 01:41:47;;;;;;;9.20;8.17;;;16.20;64.20;;;;;;5053713;28;20555;-72
2022/05/15 01:44:14;;;;;;;9.33;8.30;;;16.20;64.20;;;;;;5053439;28;20480;-72
2022/05/15 01:46:41;;;;;;;9.67;7.67;;;16.20;64.50;;;;;;5053954;28;20446;-72
2022/05/15 01:49:08;;;;;;;10.20;8.33;;;16.20;65.00;;;;;;5054284;28;20462;-72
2022/05/15 01:51:38;;;;;;;10.20;7.97;;;16.20;64.90;;;;;;5057894;28;20469;-72
2022/05/15 01:54:05;;;;;;;11.23;7.73;;;16.20;64.90;;;;;;5057385;28;20453;-71
2022/05/15 01:56:34;;;;;;;12.13;8.30;;;16.10;64.80;;;;;;5056967;28;20462;-71
2022/05/15 01:59:00;;;;;;;10.60;7.17;;;16.00;65.10;;;;;;5057905;28;20492;-71
2022/05/15 02:01:27;;;;;;;10.60;7.30;;;15.90;65.30;;;;;;5057201;28;20516;-72
2022/05/15 02:03:54;;;;;;;7.63;6.93;;;15.90;65.30;;;;;;5056990;28;20449;-72
2022/05/15 02:06:21;;;;;;;12.77;7.40;;;15.80;65.80;;;;;;5057276;28;20455;-72
2022/05/15 02:08:48;;;;;;;8.13;7.30;;;15.80;65.80;;;;;;5057955;28;20468;-72
2022/05/15 02:11:15;;;;;;;8.07;6.90;;;15.80;65.70;;;;;;5056956;28;21080;-72
2022/05/15 02:13:44;;;;;;;11.10;7.83;;;15.70;65.80;;;;;;5057254;28;20468;-72
2022/05/15 02:16:11;;;;;;;7.60;6.90;;;15.70;65.70;;;;;;5056868;28;20460;-72
2022/05/15 02:18:37;;;;;;;7.87;7.07;;;15.70;66.10;;;;;;5057026;28;20453;-71
2022/05/15 02:21:04;;;;;;;7.83;7.03;;;15.70;66.40;;;;;;5056556;28;20478;-71
2022/05/15 02:23:31;;;;;;;8.90;8.10;;;15.70;66.70;;;;;;5057004;28;20453;-71
2022/05/15 02:25:58;;;;;;;9.93;7.67;;;15.70;66.70;;;;;;5057023;28;20445;-71
2022/05/15 02:28:26;;;;;;;10.67;8.67;;;15.70;66.70;;;;;;5056746;28;20457;-72
2022/05/15 02:30:54;;;;;;;8.90;8.00;;;15.70;67.20;;;;;;5056647;28;20456;-72
2022/05/15 02:33:22;;;;;;;11.43;8.77;;;15.70;67.50;;;;;;5056829;28;20441;-71
2022/05/15 02:35:49;;;;;;;11.83;9.50;;;15.70;67.60;;;;;;5056982;28;20453;-72
2022/05/15 02:38:16;;;;;;;11.13;8.40;;;15.70;67.90;;;;;;5056299;28;20979;-72
2022/05/15 02:40:43;;;;;;;8.80;7.90;;;15.60;67.80;;;;;;5056365;28;20948;-72
2022/05/15 02:43:09;;;;;;;10.77;7.13;;;15.60;67.60;;;;;;5056283;28;20485;-71
2022/05/15 02:45:36;;;;;;;7.80;6.67;;;15.50;67.10;;;;;;5056668;28;20784;-71
2022/05/15 02:51:03;;;;;;;10.60;7.70;;;15.40;67.00;;;;;;5056062;28;20834;-72
2022/05/15 02:51:05;;;;;;;8.27;7.47;;;15.40;67.50;;;;;;5056422;28;20436;-72
2022/05/15 02:53:34;;;;;;;8.53;7.70;;;15.30;67.00;;;;;;5056430;28;20417;-72
2022/05/15 02:56:01;;;;;;;9.47;8.00;;;15.30;66.90;;;;;;5056507;28;20533;-72
2022/05/15 02:58:28;;;;;;;9.03;8.13;;;15.20;67.40;;;;;;5056357;28;20456;-72
2022/05/15 03:00:56;;;;;;;10.83;8.20;;;15.20;67.70;;;;;;5055414;28;20441;-72
2022/05/15 03:03:25;;;;;;;9.90;8.53;;;15.10;67.70;;;;;;5056111;28;20528;-71
2022/05/15 03:05:52;;;;;;;11.37;8.30;;;15.10;67.90;;;;;;5056245;28;20449;-72
2022/05/15 03:08:19;;;;;;;8.50;7.70;;;15.00;68.10;;;;;;5055806;28;20458;-72
2022/05/15 03:10:46;;;;;;;10.00;8.93;;;15.00;68.40;;;;;;5056051;28;20456;-71
2022/05/15 03:13:13;;;;;;;9.03;8.07;;;14.90;68.70;;;;;;5055962;28;20473;-71
2022/05/15 03:15:40;;;;;;;10.33;9.30;;;14.90;69.00;;;;;;5056198;28;20476;-72
2022/05/15 03:18:07;;;;;;;13.20;8.43;;;14.90;69.20;;;;;;5056141;28;20450;-72
2022/05/15 03:20:36;;;;;;;10.97;9.40;;;14.90;69.10;;;;;;5055969;28;20449;-72
2022/05/15 03:23:03;;;;;;;9.23;8.43;;;14.90;69.10;;;;;;5055272;28;20847;-71
2022/05/15 03:25:31;;;;;;;11.70;9.43;;;14.90;69.30;;;;;;5055776;28;20453;-72
2022/05/15 03:27:58;;;;;;;10.37;8.80;;;14.80;69.40;;;;;;5055687;28;20852;-72
2022/05/15 03:30:25;;;;;;;13.50;8.87;;;14.80;69.70;;;;;;5055725;28;20450;-72
2022/05/15 03:32:52;;;;;;;9.50;8.50;;;14.80;69.70;;;;;;5055602;28;20470;-72
2022/05/15 03:35:19;;;;;;;11.47;8.70;;;14.80;70.00;;;;;;5055360;28;20968;-72
2022/05/15 03:37:48;;;;;;;9.80;7.97;;;14.80;69.90;;;;;;5055537;28;20821;-72
2022/05/15 03:40:16;;;;;;;10.03;9.00;;;14.80;69.90;;;;;;5055677;28;20452;-72
2022/05/15 03:42:43;;;;;;;10.00;8.80;;;14.80;69.90;;;;;;5055384;28;20485;-71
2022/05/15 03:45:10;;;;;;;10.77;9.10;;;14.80;70.00;;;;;;5055109;28;20462;-72
2022/05/15 03:47:44;;;;;;;14.30;8.37;;;14.70;70.20;;;;;;5055601;28;20449;-72
2022/05/15 03:50:11;;;;;;;10.97;9.57;;;14.70;70.40;;;;;;5055411;28;20465;-72
2022/05/15 03:52:38;;;;;;;11.93;8.90;;;14.70;70.50;;;;;;5055074;28;20469;-71
2022/05/15 03:55:07;;;;;;;9.20;8.40;;;14.70;70.60;;;;;;5055259;28;21006;-72
2022/05/15 03:57:34;;;;;;;10.90;8.60;;;14.70;70.70;;;;;;5055164;28;20450;-72
2022/05/15 04:00:01;;;;;;;9.83;8.83;;;14.70;70.80;;;;;;5055188;28;20449;-72
2022/05/15 04:02:28;;;;;;;8.93;8.20;;;14.80;71.20;;;;;;5055424;28;20528;-72
2022/05/15 04:04:55;;;;;;;10.10;8.50;;;14.70;71.00;;;;;;5054877;28;20937;-72
2022/05/15 04:07:21;;;;;;;9.47;8.47;;;14.80;71.50;;;;;;5054741;28;20868;-72
2022/05/15 04:09:50;;;;;;;13.00;8.90;;;14.80;71.70;;;;;;5055216;28;20523;-72
2022/05/15 04:12:19;;;;;;;10.30;9.30;;;14.80;72.00;;;;;;5054922;28;20472;-72
2022/05/15 04:14:46;;;;;;;10.50;8.83;;;14.80;72.10;;;;;;5054876;28;20449;-72
2022/05/15 04:17:12;;;;;;;9.93;8.60;;;14.70;71.90;;;;;;5055407;28;20879;-71
2022/05/15 04:19:39;;;;;;;9.30;8.40;;;14.70;71.70;;;;;;5054976;28;20454;-71
2022/05/15 04:22:07;;;;;;;10.03;9.03;;;14.60;71.60;;;;;;5054876;28;20485;-71
2022/05/15 04:24:35;;;;;;;11.73;9.53;;;14.60;71.90;;;;;;5054941;28;20536;-71
2022/05/15 04:27:03;;;;;;;10.37;8.87;;;14.50;72.30;;;;;;5055134;28;20449;-71
2022/05/15 04:29:31;;;;;;;11.43;8.77;;;14.50;72.80;;;;;;5054866;28;20449;-71
2022/05/15 04:31:58;;;;;;;10.30;9.33;;;14.50;73.00;;;;;;5054874;28;21000;-71
2022/05/15 04:34:26;;;;;;;14.27;9.03;;;14.50;73.30;;;;;;5054870;28;20452;-72
2022/05/15 04:36:53;;;;;;;9.33;8.33;;;14.50;73.20;;;;;;5054748;28;20452;-72
2022/05/15 04:39:21;;;;;;;10.03;9.00;;;14.50;73.20;;;;;;5054201;28;20441;-71
2022/05/15 04:41:47;;;;;;;9.97;8.97;;;14.60;73.70;;;;;;5053717;28;21054;-72
2022/05/15 04:44:14;;;;;;;13.60;9.50;;;14.60;73.90;;;;;;5054417;28;20450;-71
2022/05/15 04:46:42;;;;;;;11.10;8.17;;;14.60;74.00;;;;;;5054465;28;20798;-70
2022/05/15 04:49:09;;;;;;;14.03;9.70;;;14.70;74.30;;;;;;5054362;28;20454;-71
2022/05/15 04:51:36;;;;;;;8.93;8.13;;;14.60;74.30;;;;;;5054631;28;20481;-72
2022/05/15 04:54:03;;;;;;;11.93;8.90;;;14.70;74.60;;;;;;5054051;28;20833;-71
2022/05/15 04:56:30;;;;;;;9.90;8.90;;;14.70;74.90;;;;;;5053899;28;20446;-71
2022/05/15 04:58:57;;;;;;;9.70;8.90;;;14.80;75.20;;;;;;5053663;28;20963;-71
2022/05/15 05:01:25;;;;;;;10.23;9.17;;;14.90;75.80;;;;;;5053817;28;20472;-71
2022/05/15 05:03:55;;;;;;;11.67;8.30;;;14.90;76.10;;;;;;5053993;28;20495;-70
2022/05/15 05:06:22;;;;;;;10.80;9.70;;;15.00;76.70;;;;;;5054313;28;20449;-70
2022/05/15 05:08:49;;;;;;;13.53;8.97;;;15.10;77.10;;;;;;5055490;28;20435;-71
2022/05/15 05:11:16;;;;;;;13.40;10.23;;;15.20;77.50;;;;;;5056826;28;20483;-72
2022/05/15 05:13:43;;;;;;;11.33;9.07;;;15.20;77.90;;;;;;5054522;28;20450;-71
2022/05/15 05:16:10;;;;;;;12.03;10.20;;;15.30;78.20;;;;;;5055259;28;20453;-71
2022/05/15 05:18:37;;;;;;;11.73;9.33;;;15.40;78.60;;;;;;5055851;28;20438;-71
2022/05/15 05:21:06;;;;;;;12.30;9.83;;;15.40;78.80;;;;;;5053686;28;20477;-71
2022/05/15 05:23:33;;;;;;;14.07;10.17;;;15.50;79.30;;;;;;5054449;28;20863;-71
2022/05/15 05:26:00;;;;;;;13.43;12.03;;;15.60;79.70;;;;;;5057768;28;20476;-71
2022/05/15 05:28:28;;;;;;;12.50;11.30;;;15.70;80.10;;;;;;5057910;28;20449;-71
2022/05/15 05:30:55;;;;;;;11.67;10.67;;;15.70;80.20;;;;;;5057377;28;20449;-70
2022/05/15 05:33:23;;;;;;;12.80;11.50;;;15.80;80.40;;;;;;5057841;28;20445;-71
2022/05/15 05:35:51;;;;;;;12.70;11.40;;;15.90;80.50;;;;;;5057507;28;20456;-71
2022/05/15 05:38:19;;;;;;;12.40;10.17;;;16.00;80.50;;;;;;5057891;28;20453;-70
2022/05/15 05:40:45;;;;;;;16.90;10.83;;;16.10;80.70;;;;;;5057179;28;20465;-72
2022/05/15 05:43:12;;;;;;;11.53;10.40;;;16.20;80.80;;;;;;5057380;28;20504;-72
2022/05/15 05:45:39;;;;;;;14.90;12.10;;;16.30;80.80;;;;;;5057532;28;20437;-72
2022/05/15 05:48:07;;;;;;;12.93;11.00;;;16.40;80.90;;;;;;5057046;28;20445;-72
2022/05/15 05:50:36;;;;;;;12.77;10.87;;;16.50;80.60;;;;;;5057055;28;20449;-72
2022/05/15 05:53:02;;;;;;;11.07;9.87;;;16.60;80.90;;;;;;5057212;28;20474;-71
2022/05/15 05:55:31;;;;;;;10.57;9.30;;;16.70;80.10;;;;;;5057219;28;20500;-71
2022/05/15 05:57:58;;;;;;;11.73;9.30;;;16.80;79.70;;;;;;5057755;28;20453;-71
2022/05/15 06:00:28;;;;;;;17.40;9.60;;;17.00;78.90;;;;;;5057169;28;20445;-71
2022/05/15 06:04:39;;;;;;;10.87;9.57;;;17.10;77.80;;;;;;5057415;28;20500;-70
2022/05/15 06:05:43;;;;;;;11.87;9.90;;;17.20;78.10;;;;;;5056804;28;20528;-70
2022/05/15 06:08:10;;;;;;;12.10;10.13;;;17.40;77.20;;;;;;5057202;28;20491;-70
2022/05/15 06:10:39;;;;;;;8.03;7.27;;;17.50;76.80;;;;;;5056562;28;20981;-70
2022/05/15 06:13:06;;;;;;;10.70;7.20;;;17.70;75.90;;;;;;5057006;28;20503;-70
2022/05/15 06:15:33;;;;;;;8.77;7.70;;;17.80;74.40;;;;;;5056619;28;20457;-70
2022/05/15 06:18:02;;;;;;;8.43;6.67;;;17.90;73.10;;;;;;5056818;28;20445;-71
2022/05/15 06:20:29;;;;;;;12.30;6.47;;;18.10;72.20;;;;;;5056594;28;21074;-71
2022/05/15 06:22:56;;;;;;;8.60;6.60;;;18.20;71.00;;;;;;5056512;28;20588;-71
2022/05/15 06:25:23;;;;;;;10.50;5.90;;;18.40;70.20;;;;;;5056534;28;21055;-71
2022/05/15 06:27:52;;;;;;;9.03;6.40;;;18.50;69.60;;;;;;5056168;28;20986;-71
2022/05/15 06:30:19;;;;;;;7.60;5.60;;;18.60;69.30;;;;;;5056922;28;20456;-71
2022/05/15 06:32:46;;;;;;;8.17;6.10;;;18.80;68.10;;;;;;5056452;28;20841;-70
2022/05/15 06:35:15;;;;;;;7.60;6.10;;;18.90;67.90;;;;;;5055846;28;20446;-70
2022/05/15 06:37:42;;;;;;;9.30;5.80;;;19.10;67.60;;;;;;5055407;28;20952;-71
2022/05/15 06:40:11;;;;;;;11.93;7.20;;;19.20;67.10;;;;;;5055986;28;20451;-71
2022/05/15 06:42:38;;;;;;;8.17;6.30;;;19.40;66.50;;;;;;5055696;28;20858;-71
2022/05/15 06:45:08;;;;;;;9.03;7.07;;;19.50;66.80;;;;;;5055603;28;20461;-72
2022/05/15 06:47:36;;;;;;;9.63;7.13;;;19.70;66.40;;;;;;5056040;28;20798;-72
2022/05/15 06:50:03;;;;;;;9.07;6.60;;;19.80;65.80;;;;;;5055859;28;20445;-72
2022/05/15 06:52:30;;;;;;;10.33;6.30;;;20.10;65.10;;;;;;5056112;28;20469;-72
2022/05/15 06:54:57;;;;;;;9.90;6.90;;;20.20;64.20;;;;;;5057050;28;20442;-72
2022/05/15 06:57:29;;;;;;;6.90;5.77;;;20.30;63.50;;;;;;5056843;28;20460;-72
2022/05/15 06:59:57;;;;;;;8.50;6.40;;;20.50;63.10;;;;;;5056486;28;20465;-71
2022/05/15 07:02:26;;;;;;;7.10;6.17;;;20.60;63.70;;;;;;5055601;28;20474;-71
2022/05/15 07:04:53;;;;;;;8.20;5.50;;;20.80;62.40;;;;;;5055570;28;20489;-72
2022/05/15 07:07:19;;;;;;;9.73;5.00;;;20.90;60.70;;;;;;5055857;28;20450;-71
2022/05/15 07:09:47;;;;;;;8.40;4.73;;;21.10;60.00;;;;;;5056029;28;20461;-71
2022/05/15 07:12:14;;;;;;;9.50;4.73;;;21.20;59.50;;;;;;5055599;28;20920;-72
2022/05/15 07:14:41;;;;;;;7.53;5.07;;;21.40;58.80;;;;;;5055553;28;20446;-71
2022/05/15 07:17:07;;;;;;;4.53;3.87;;;21.60;57.90;;;;;;5055174;28;20438;-72
2022/05/15 07:19:35;;;;;;;6.37;3.97;;;21.80;56.80;;;;;;5055371;28;20468;-72
2022/05/15 07:22:03;;;;;;;9.90;4.63;;;22.00;56.10;;;;;;5055396;28;20466;-72
2022/05/15 07:24:30;;;;;;;9.10;4.47;;;22.10;55.50;;;;;;5055273;28;20481;-72
2022/05/15 07:26:56;;;;;;;5.70;4.80;;;22.30;54.60;;;;;;5054800;28;20959;-72
2022/05/15 07:29:24;;;;;;;6.00;4.70;;;22.40;54.10;;;;;;5055360;28;20537;-72
2022/05/15 07:31:51;;;;;;;9.73;5.40;;;22.60;53.60;;;;;;5054708;28;20522;-71
2022/05/15 07:34:19;;;;;;;5.70;4.63;;;22.80;53.10;;;;;;5054992;28;20449;-72
2022/05/15 07:36:50;;;;;;;10.73;4.70;;;22.90;52.30;;;;;;5055161;28;20457;-72
2022/05/15 07:39:18;;;;;;;8.10;4.23;;;23.10;52.00;;;;;;5055086;28;20472;-72
2022/05/15 07:41:45;;;;;;;8.30;4.47;;;23.30;51.90;;;;;;5055177;28;20511;-72
2022/05/15 07:44:11;;;;;;;7.97;3.60;;;23.50;51.60;;;;;;5054505;28;20485;-72
2022/05/15 07:46:39;;;;;;;8.13;4.37;;;23.70;51.20;;;;;;5054518;28;20454;-72
2022/05/15 07:49:07;;;;;;;6.47;3.90;;;23.90;50.60;;;;;;5054752;28;20465;-72
2022/05/15 07:51:34;;;;;;;5.70;3.90;;;24.10;50.20;;;;;;5054715;28;20501;-72
2022/05/15 07:54:03;;;;;;;8.60;4.57;;;24.30;49.40;;;;;;5054655;28;20449;-72
2022/05/15 07:56:29;;;;;;;8.27;4.77;;;24.50;48.60;;;;;;5054449;28;20454;-72
2022/05/15 07:58:56;;;;;;;5.37;4.10;;;24.70;47.90;;;;;;5054628;28;20449;-73
2022/05/15 08:01:23;;;;;;;8.37;4.40;;;24.90;47.30;;;;;;5054036;28;20981;-73
2022/05/15 08:03:50;;;;;;;5.40;4.50;;;25.10;46.20;;;;;;5054577;28;20485;-73
2022/05/15 08:09:06;;;;;;;7.67;3.53;;;25.20;45.70;;;;;;5054154;28;20451;-73
2022/05/15 08:11:33;;;;;;;5.63;3.23;;;25.40;46.20;;;;;;5054430;28;20478;-72
2022/05/15 08:14:01;;;;;;;9.10;4.43;;;25.50;46.40;;;;;;5054203;28;20468;-72
2022/05/15 08:16:29;;;;;;;7.10;4.07;;;25.80;46.70;;;;;;5054216;28;20485;-73
2022/05/15 08:24:26;;;;;;;9.33;4.17;;;26.40;45.00;;;;;;5053822;28;20587;-71
2022/05/15 08:26:53;;;;;;;10.40;5.40;;;26.50;43.40;;;;;;5054109;28;20449;-71
2022/05/15 08:29:20;;;;;;;8.53;4.63;;;26.60;42.20;;;;;;5054097;28;20821;-70
2022/05/15 08:31:47;;;;;;;6.97;3.83;;;26.70;42.30;;;;;;5053950;28;20465;-70
2022/05/15 08:34:14;;;;;;;6.87;4.13;;;26.80;42.70;;;;;;5053483;28;20453;-71
2022/05/15 08:36:44;;;;;;;9.27;4.90;;;26.80;42.50;;;;;;5053664;28;20449;-71
2022/05/15 08:39:11;;;;;;;10.73;4.97;;;27.00;42.10;;;;;;5053559;28;20830;-71
2022/05/15 08:41:47;;;;;;;11.50;5.07;;;27.00;41.10;;;;;;5054692;28;20544;-70
2022/05/15 08:44:18;;;;;;;4.90;4.10;;;27.00;41.10;;;;;;5054155;28;20489;-70
2022/05/15 08:47:04;;;;;;;8.50;4.90;;;27.00;41.00;;;;;;5053563;28;20430;-70
2022/05/15 08:49:35;;;;;;;9.83;5.27;;;27.10;39.90;;;;;;5053540;28;20456;-70
2022/05/15 08:52:10;;;;;;;7.67;5.40;;;27.20;40.60;;;;;;5053524;28;20465;-71
2022/05/15 08:54:42;;;;;;;9.37;4.83;;;27.20;39.90;;;;;;5053646;28;20430;-70
2022/05/15 08:57:18;;;;;;;7.50;5.03;;;27.20;38.10;;;;;;5053606;28;20537;-71
2022/05/15 08:59:54;;;;;;;6.27;4.53;;;27.20;38.50;;;;;;5052447;28;20954;-71
2022/05/15 09:02:22;;;;;;;8.80;4.60;;;27.30;38.90;;;;;;5053632;28;20469;-71
2022/05/15 09:04:51;;;;;;;10.13;4.50;;;27.40;39.10;;;;;;5053336;28;20466;-71
2022/05/15 09:07:28;;;;;;;11.33;5.00;;;27.50;38.60;;;;;;5053069;28;20450;-71
2022/05/15 09:10:04;;;;;;;8.40;4.70;;;27.70;39.00;;;;;;5053515;28;20440;-71
2022/05/15 09:12:37;;;;;;;8.50;4.90;;;27.90;38.60;;;;;;5053322;28;20886;-71
2022/05/15 09:15:07;;;;;;;10.40;4.63;;;28.10;37.40;;;;;;5053533;28;20437;-71
2022/05/15 09:17:40;;;;;;;10.10;5.10;;;28.30;35.60;;;;;;5053232;28;20441;-71
2022/05/15 09:20:11;;;;;;;10.30;4.50;;;28.50;35.40;;;;;;5053484;28;20437;-72
2022/05/15 09:22:41;;;;;;;9.90;4.90;;;28.60;35.40;;;;;;5053283;28;20473;-72
2022/05/15 09:25:16;;;;;;;9.90;4.63;;;28.80;34.60;;;;;;5053314;28;20477;-72
2022/05/15 09:27:59;;;;;;;8.50;5.03;;;29.00;34.70;;;;;;5053130;28;20437;-72
2022/05/15 09:30:33;;;;;;;9.90;4.90;;;29.30;35.30;;;;;;5053280;28;20438;-71
2022/05/15 09:33:00;;;;;;;9.47;5.03;;;29.50;34.00;;;;;;5053312;28;20507;-72
2022/05/15 09:35:33;;;;;;;9.10;5.30;;;29.70;33.40;;;;;;5053218;28;20445;-72
2022/05/15 09:43:30;;;;;;;8.03;5.47;;;29.80;32.70;;;;;;5053297;28;20468;-72
2022/05/15 09:43:36;;;;;;;10.60;5.90;;;30.00;32.60;;;;;;5052531;28;20540;-73
2022/05/15 09:46:12;;;;;;;12.73;5.37;;;29.70;31.00;;;;;;5053159;28;20847;-73
2022/05/15 09:48:42;;;;;;;8.33;4.77;;;29.20;32.80;;;;;;5053034;28;20434;-72
2022/05/15 09:51:13;;;;;;;10.47;4.23;;;29.40;33.60;;;;;;5052797;28;20480;-73
2022/05/15 09:53:44;;;;;;;9.20;4.73;;;29.70;32.70;;;;;;5052973;28;20524;-72
2022/05/15 09:56:23;;;;;;;6.37;4.57;;;30.10;32.70;;;;;;5052729;28;20803;-72
2022/05/15 09:58:56;;;;;;;6.83;4.43;;;30.50;31.70;;;;;;5052600;28;20786;-72
2022/05/15 10:01:28;;;;;;;11.03;4.63;;;31.00;32.70;;;;;;5052826;28;20481;-72
2022/05/15 10:03:58;;;;;;;7.27;4.20;;;31.10;30.60;;;;;;5052572;28;21086;-71
2022/05/15 10:06:27;;;;;;;9.33;4.40;;;31.30;29.60;;;;;;5052652;28;20876;-72
2022/05/15 10:09:15;;;;;;;4.93;3.30;;;31.60;28.60;;;;;;5053664;28;20468;-72
2022/05/15 10:11:46;;;;;;;6.10;3.50;;;32.10;28.40;;;;;;5051115;28;20476;-72
2022/05/15 10:14:26;;;;;;;6.60;3.77;;;32.50;27.40;;;;;;5056611;28;20421;-72
2022/05/15 10:16:55;;;;;;;6.00;3.90;;;32.80;26.70;;;;;;5056679;28;20471;-72
2022/05/15 10:19:32;;;;;;;4.93;3.70;;;33.20;26.60;;;;;;5056582;28;20441;-72
2022/05/15 10:22:23;;;;;;;9.20;4.20;;;33.70;25.80;;;;;;5056683;28;20834;-71
2022/05/15 10:24:51;;;;;;;7.03;3.50;;;34.10;25.80;;;;;;5056599;28;20492;-71
2022/05/15 10:27:24;;;;;;;6.97;3.97;;;34.60;25.30;;;;;;5056517;28;20468;-71
2022/05/15 10:29:59;;;;;;;8.90;4.53;;;35.10;24.40;;;;;;5057101;28;20437;-71
2022/05/15 10:32:30;;;;;;;6.93;3.70;;;35.30;22.90;;;;;;5056117;28;20473;-74
2022/05/15 10:34:58;;;;;;;6.07;3.90;;;34.40;24.00;;;;;;5056294;28;20834;-72
2022/05/15 10:37:51;;;;;;;8.13;4.70;;;34.20;24.60;;;;;;5057115;28;20448;-74
2022/05/15 10:40:25;;;;;;;8.07;4.50;;;34.50;24.30;;;;;;5056322;28;20731;-74
2022/05/15 10:43:02;;;;;;;9.30;4.00;;;35.00;24.80;;;;;;5056104;28;20499;-72
2022/05/15 10:45:38;;;;;;;7.47;3.80;;;35.60;23.90;;;;;;5056150;28;20472;-72
2022/05/15 10:48:37;;;;;;;5.83;3.47;;;36.30;22.90;;;;;;5055815;28;20919;-73
2022/05/15 10:51:14;;;;;;;6.23;4.10;;;36.80;22.50;;;;;;5055927;28;20567;-73
2022/05/15 10:59:53;;;;;;;5.20;3.10;;;38.20;21.70;;;;;;5055952;28;20217;-71
2022/05/15 11:02:49;;;;;;;5.22;3.38;;;39.10;20.50;;;;;;5055526;28;20713;-70
2022/05/15 11:05:22;;;;;;;5.68;3.17;;;39.60;19.00;;;;;;5055633;28;20237;-70
2022/05/15 11:07:57;;;;;;;3.15;2.80;;;40.00;19.00;;;;;;5055941;28;20209;-70
2022/05/15 11:10:27;;;;;;;6.35;3.05;;;40.60;18.60;;;;;;5055628;28;20209;-73
2022/05/15 11:13:03;;;;;;;4.10;2.65;;;40.90;17.10;;;;;;5055552;28;20226;-72
2022/05/15 11:15:40;;;;;;;11.35;3.00;;;41.10;17.50;;;;;;5055583;28;20210;-72
2022/05/15 11:18:23;;;;;;;6.30;2.90;;;41.30;16.80;;;;;;5055601;28;20297;-72
2022/05/15 11:20:53;;;;;;;5.25;3.40;;;41.60;17.20;;;;;;5055719;28;20187;-71
2022/05/15 11:23:26;;;;;;;6.32;3.30;;;41.70;17.20;;;;;;5054836;28;20240;-72
2022/05/15 11:26:00;;;;;;;5.35;3.15;;;41.90;16.90;;;;;;5054995;28;20697;-72
2022/05/15 11:28:31;;;;;;;4.43;3.15;;;41.90;17.10;;;;;;5055417;28;20222;-72
2022/05/15 11:31:03;;;;;;;4.97;2.40;;;42.20;16.90;;;;;;5055383;28;20193;-71
2022/05/15 11:33:47;;;;;;;7.57;3.22;;;42.50;16.40;;;;;;5055265;28;20190;-71
2022/05/15 11:36:27;;;;;;;4.22;2.50;;;42.80;17.40;;;;;;5055163;28;20208;-71
2022/05/15 11:39:02;;;;;;;6.22;2.90;;;43.00;16.30;;;;;;5055045;28;20248;-71
2022/05/15 11:41:39;;;;;;;5.05;3.03;;;43.20;15.60;;;;;;5054958;28;20222;-71
2022/05/15 11:44:10;;;;;;;3.53;2.78;;;43.40;15.90;;;;;;5054441;28;20703;-71
2022/05/15 11:46:59;;;;;;;5.50;2.30;;;43.80;15.70;;;;;;5054905;28;20194;-71
2022/05/15 11:49:34;;;;;;;4.68;2.95;;;44.10;15.50;;;;;;5030093;28;20210;-71
2022/05/15 11:52:21;;;;;;;4.10;2.42;;;44.30;14.60;;;;;;5054703;28;20232;-72
2022/05/15 11:54:52;;;;;;;5.22;2.35;;;44.50;15.00;;;;;;5054751;28;20205;-72
2022/05/15 11:57:44;;;;;;;4.95;2.17;;;44.50;14.20;;;;;;5054439;28;20707;-72
2022/05/15 12:00:23;;;;;;;3.20;1.92;;;44.40;14.70;;;;;;5054745;28;20186;-72
2022/05/15 12:02:55;;;;;;;9.20;2.47;;;44.60;14.90;;;;;;5054509;28;20235;-72
2022/05/15 12:05:36;;;;;;;5.28;2.35;;;45.00;14.20;;;;;;5054426;28;20210;-72
2022/05/15 12:08:25;;;;;;;5.00;2.08;;;45.40;14.10;;;;;;5054337;28;20187;-72
2022/05/15 12:11:00;;;;;;;3.83;2.17;;;45.70;13.10;;;;;;5053907;28;20204;-72
2022/05/15 12:13:34;;;;;;;4.55;2.20;;;46.00;13.40;;;;;;5054477;28;20274;-72
2022/05/15 12:16:17;;;;;;;3.10;1.92;;;46.20;13.20;;;;;;5054528;28;20222;-72
2022/05/15 12:18:44;;;;;;;4.75;2.55;;;46.60;13.20;;;;;;5054459;28;20209;-72
2022/05/15 12:21:17;;;;;;;5.45;2.72;;;46.80;13.10;;;;;;5054163;28;20309;-72
2022/05/15 12:24:27;;;;;;;6.78;2.20;;;46.90;12.50;;;;;;5054195;28;20195;-71
2022/05/15 12:26:46;;;;;;;2.88;1.88;;;46.90;12.30;;;;;;5053894;28;20285;-72
2022/05/15 12:29:31;;;;;;;3.78;2.20;;;46.90;12.00;;;;;;5054382;28;20186;-72
2022/05/15 12:31:58;;;;;;;4.25;2.33;;;46.70;12.20;;;;;;5053751;28;20737;-72
2022/05/15 12:34:28;;;;;;;3.03;2.03;;;46.60;11.80;;;;;;5053966;28;20199;-72
2022/05/15 12:36:59;;;;;;;4.45;2.28;;;46.50;12.60;;;;;;5054287;28;20194;-72
2022/05/15 12:39:29;;;;;;;5.53;2.53;;;46.50;11.80;;;;;;5054338;28;20186;-73
2022/05/15 12:42:00;;;;;;;4.05;2.20;;;46.20;11.50;;;;;;5054256;28;20222;-73
2022/05/15 12:44:36;;;;;;;3.97;2.30;;;46.20;12.30;;;;;;5053791;28;20225;-73
2022/05/15 12:47:05;;;;;;;4.07;2.08;;;46.40;12.30;;;;;;5053823;28;20207;-73
2022/05/15 12:49:34;;;;;;;3.83;2.30;;;46.60;11.50;;;;;;5053997;28;20693;-73
2022/05/15 12:52:15;;;;;;;8.25;2.20;;;46.90;12.50;;;;;;5054311;28;20564;-73
2022/05/15 12:54:43;;;;;;;11.60;2.47;;;46.90;10.90;;;;;;5054331;28;20187;-72
2022/05/15 12:57:13;;;;;;;5.32;2.00;;;46.90;11.30;;;;;;5054329;28;20195;-72
2022/05/15 12:59:42;;;;;;;4.85;1.98;;;47.00;11.20;;;;;;5054369;28;20217;-72
2022/05/15 13:02:22;;;;;;;6.35;2.25;;;47.20;11.10;;;;;;5054034;28;20233;-73
2022/05/15 13:04:52;;;;;;;3.35;2.30;;;47.20;11.20;;;;;;5053901;28;20210;-74
2022/05/15 13:07:26;;;;;;;4.22;1.85;;;47.40;11.10;;;;;;5054397;28;20206;-73
2022/05/15 13:10:02;;;;;;;5.35;2.17;;;47.40;11.50;;;;;;5053986;28;20191;-73
2022/05/15 13:12:29;;;;;;;3.65;2.38;;;47.50;11.30;;;;;;5053580;28;20218;-73
2022/05/15 13:14:58;;;;;;;2.75;1.80;;;47.60;10.60;;;;;;5053424;28;20199;-73